createdAt,value
2022-11-25T09:00:35.771Z,9.47
2022-11-25T09:33:20.133Z,7.43
2022-11-25T09:55:17.325Z,6.90
2022-11-25T10:00:15.310Z,6.97
2022-11-25T10:05:16.854Z,5.60
2022-11-25T10:10:23.479Z,5.57
2022-11-25T10:15:24.718Z,5.30
2022-11-25T10:20:23.762Z,3.80
2022-11-25T10:25:22.064Z,3.83
2022-11-25T10:30:19.929Z,3.13
2022-11-25T10:35:28.335Z,3.80
2022-11-25T10:40:24.017Z,3.30
2022-11-25T10:45:17.782Z,2.77
2022-11-25T10:50:19.045Z,3.20
2022-11-25T10:55:15.564Z,2.77
2022-11-25T11:00:29.649Z,2.50
2022-11-25T11:05:25.896Z,2.43
2022-11-25T11:10:22.853Z,2.50
2022-11-25T11:15:22.202Z,2.40
2022-11-25T11:20:23.424Z,2.20
2022-11-25T11:25:29.193Z,3.00
2022-11-25T11:30:29.803Z,2.40
2022-11-25T11:35:29.488Z,2.45
2022-11-25T11:40:33.841Z,2.65
2022-11-25T11:45:44.801Z,2.50
2022-11-25T11:50:42.317Z,2.00
2022-11-25T11:56:19.039Z,1.75
2022-11-25T12:01:26.667Z,2.17
2022-11-25T12:06:22.816Z,2.30
2022-11-25T12:11:20.437Z,2.05
2022-11-25T12:16:22.020Z,1.90
2022-11-25T12:21:27.848Z,2.35
2022-11-25T12:26:25.941Z,2.25
2022-11-25T12:31:26.466Z,1.90
2022-11-25T12:36:27.904Z,2.08
2022-11-25T12:41:27.126Z,1.50
2022-11-25T12:46:27.041Z,1.80
2022-11-25T12:51:35.569Z,1.90
2022-11-25T12:56:44.297Z,2.10
2022-11-25T13:02:07.807Z,1.90
2022-11-25T13:07:16.825Z,1.70
2022-11-25T13:12:23.572Z,2.38
2022-11-25T13:17:19.817Z,2.00
2022-11-25T13:22:29.955Z,2.70
2022-11-25T13:27:33.109Z,2.13
2022-11-25T13:32:37.396Z,2.60
2022-11-25T13:37:40.142Z,1.97
2022-11-25T13:42:33.752Z,2.33
2022-11-25T13:47:36.769Z,2.87
2022-11-25T13:52:38.189Z,2.50
2022-11-25T13:57:34.877Z,3.63
2022-11-25T14:02:46.291Z,4.67
2022-11-25T14:07:48.524Z,6.60
2022-11-25T14:13:04.192Z,4.33
2022-11-25T14:19:03.176Z,4.60
2022-11-25T14:24:06.410Z,4.50
2022-11-25T14:29:03.926Z,4.10
2022-11-25T14:34:05.115Z,4.93
2022-11-25T14:39:01.826Z,7.13
2022-11-25T14:43:59.785Z,7.47
2022-11-25T14:48:59.950Z,6.17
2022-11-25T14:53:54.726Z,8.10
2022-11-25T14:58:50.554Z,7.57
2022-11-25T15:03:44.496Z,6.70
2022-11-25T15:08:45.582Z,6.17
2022-11-25T15:13:42.367Z,8.37
2022-11-25T15:18:39.404Z,7.37
2022-11-25T15:23:36.455Z,6.63
2022-11-25T15:28:37.494Z,4.70
2022-11-25T15:33:32.221Z,5.27
2022-11-25T15:38:43.671Z,4.30
2022-11-25T15:43:42.305Z,5.40
2022-11-25T15:48:41.261Z,9.23
2022-11-25T15:53:39.331Z,11.00
2022-11-25T15:58:33.201Z,8.63
2022-11-25T16:03:28.492Z,9.60
2022-11-25T16:08:36.602Z,9.03
2022-11-25T16:13:36.688Z,9.33
2022-11-25T16:18:40.926Z,9.60
2022-11-25T16:23:36.801Z,8.83
2022-11-25T16:28:31.600Z,8.50
2022-11-25T16:33:26.069Z,11.20
2022-11-25T16:38:21.338Z,9.97
2022-11-25T16:43:21.558Z,10.57
2022-11-25T16:48:17.957Z,9.40
2022-11-25T16:53:11.993Z,9.83
2022-11-25T16:58:11.925Z,10.77
2022-11-25T17:03:10.922Z,11.67
2022-11-25T17:08:05.124Z,11.60
2022-11-25T17:12:58.937Z,12.10
2022-11-25T17:17:53.941Z,15.47
2022-11-25T17:22:47.430Z,18.20
